Time;durP1;ratioP1;P1;durP2;ratioP2;P2;SDS_P1;SDS_P2;PMS_P1;PMS_P2;Temp;Humidity;BMP_temperature;BMP_pressure;BME280_temperature;BME280_humidity;BME280_pressure;Samples;Min_cycle;Max_cycle;Signal;HPM_P1;HPM_P2
2022/11/26 00:02:26;;;;;;;49.90;33.00;;;;;;;0.07;96.44;97988.83;107990;1266;68111;-74
2022/11/26 00:04:57;;;;;;;44.20;29.60;;;;;;;0.06;96.51;97988.16;107901;1263;69694;-74
2022/11/26 00:07:29;;;;;;;47.90;33.90;;;;;;;0.05;96.54;97988.86;107742;1263;59769;-73
2022/11/26 00:09:59;;;;;;;48.10;32.00;;;;;;;0.05;96.67;97996.74;107961;1266;59668;-73
2022/11/26 00:12:33;;;;;;;48.00;31.30;;;;;;;0.05;96.95;97995.04;107702;1266;71947;-75
2022/11/26 00:15:29;;;;;;;45.40;30.10;;;;;;;0.02;97.14;97991.84;107926;1262;69854;-74
2022/11/26 00:17:59;;;;;;;38.40;25.80;;;;;;;-0.02;97.03;97988.67;107796;1262;68442;-74
2022/11/26 00:20:30;;;;;;;48.50;30.70;;;;;;;-0.05;98.20;97993.88;107823;1266;59652;-75
2022/11/26 00:23:03;;;;;;;46.30;33.80;;;;;;;-0.04;100.00;97994.19;108113;1262;59716;-75
2022/11/26 00:25:37;;;;;;;48.20;33.40;;;;;;;0.02;100.00;97994.59;107796;1266;71336;-74
2022/11/26 00:28:29;;;;;;;50.20;35.30;;;;;;;0.07;100.00;97995.16;107975;1266;69304;-74
2022/11/26 00:31:03;;;;;;;55.50;37.70;;;;;;;0.11;100.00;97998.33;108055;1266;68300;-74
2022/11/26 00:33:33;;;;;;;57.10;37.80;;;;;;;0.15;100.00;98001.50;107909;1262;59660;-74
2022/11/26 00:36:05;;;;;;;;;;;;;;;0.19;100.00;97997.48;108072;1266;59697;-74
2022/11/26 00:38:35;;;;;;;43.80;28.70;;;;;;;0.23;100.00;97996.35;108004;1261;71305;-74
2022/11/26 00:41:15;;;;;;;56.40;37.40;;;;;;;0.25;100.00;97997.16;107924;1266;68856;-73
2022/11/26 00:43:45;;;;;;;54.20;36.60;;;;;;;0.26;100.00;97997.98;107924;1262;68677;-74
2022/11/26 00:46:21;;;;;;;52.80;34.90;;;;;;;0.28;99.63;97995.55;107709;1261;59752;-74
2022/11/26 00:48:51;;;;;;;49.40;35.30;;;;;;;0.28;98.81;97997.10;109079;1262;59675;-74
2022/11/26 00:51:23;;;;;;;54.90;35.40;;;;;;;0.28;98.88;97997.29;108036;1262;70606;-75
2022/11/26 00:53:55;;;;;;;46.40;31.90;;;;;;;0.28;98.39;97996.77;107932;1266;68729;-74
2022/11/26 00:56:24;;;;;;;45.60;31.70;;;;;;;0.28;98.30;97995.91;107902;1266;68483;-74
2022/11/26 00:58:54;;;;;;;53.80;34.40;;;;;;;0.27;98.21;97999.34;107943;1266;59796;-74
2022/11/26 01:01:26;;;;;;;48.40;33.20;;;;;;;0.26;98.22;97996.45;107943;1261;59673;-74
2022/11/26 01:03:57;;;;;;;47.20;32.40;;;;;;;0.26;99.81;97990.45;107941;1262;69525;-74
2022/11/26 01:06:34;;;;;;;46.20;33.70;;;;;;;0.28;100.00;97992.13;108095;1261;68743;-74
2022/11/26 01:09:05;;;;;;;48.60;34.90;;;;;;;0.29;100.00;97993.83;107919;1266;69417;-75
2022/11/26 01:11:34;;;;;;;48.30;34.40;;;;;;;0.30;100.00;97999.80;108119;1266;59730;-75
2022/11/26 01:14:04;;;;;;;53.30;37.90;;;;;;;0.31;100.00;98000.27;107837;1266;59664;-75
2022/11/26 01:16:38;;;;;;;58.30;38.00;;;;;;;0.31;100.00;98002.17;107947;1266;70724;-75
2022/11/26 01:19:15;;;;;;;59.70;40.70;;;;;;;0.30;100.00;97999.11;107969;1266;69142;-74
2022/11/26 01:21:45;;;;;;;57.70;39.20;;;;;;;0.28;100.00;97999.51;107881;1257;67497;-74
2022/11/26 01:24:16;;;;;;;58.60;40.50;;;;;;;0.25;100.00;97996.31;107853;1262;59722;-75
2022/11/26 01:26:47;;;;;;;53.70;34.90;;;;;;;0.21;100.00;97995.20;107816;1262;59795;-73
2022/11/26 01:29:19;;;;;;;48.30;33.80;;;;;;;0.19;100.00;98004.85;107933;1263;71205;-74
2022/11/26 01:31:49;;;;;;;49.80;33.70;;;;;;;0.20;100.00;98003.29;107711;1262;69247;-75
2022/11/26 01:34:20;;;;;;;52.00;32.70;;;;;;;0.20;100.00;98003.46;107642;1266;69659;-75
2022/11/26 01:36:50;;;;;;;;;;;;;;;0.20;100.00;98004.84;107923;1266;59775;-76
2022/11/26 01:39:21;;;;;;;43.30;29.80;;;;;;;0.20;100.00;98003.27;107794;1266;59616;-74
2022/11/26 01:42:15;;;;;;;38.70;25.20;;;;;;;0.21;100.00;98005.30;107834;1262;71873;-73
2022/11/26 01:44:45;;;;;;;41.90;28.70;;;;;;;0.22;100.00;98003.55;107787;1266;68379;-74
2022/11/26 01:47:24;;;;;;;37.70;24.70;;;;;;;0.23;100.00;98006.47;107820;1263;69205;-74
2022/11/26 01:50:28;;;;;;;55.80;37.20;;;;;;;0.23;100.00;97998.58;107714;1261;59715;-75
2022/11/26 01:52:57;;;;;;;46.40;32.90;;;;;;;0.22;100.00;97993.79;108028;1266;59716;-75
2022/11/26 01:55:37;;;;;;;41.80;30.70;;;;;;;0.21;100.00;97989.88;108607;1266;71265;-74
2022/11/26 01:58:12;;;;;;;44.40;29.20;;;;;;;0.20;100.00;97994.35;109073;1266;69840;-74
2022/11/26 02:00:42;;;;;;;41.30;28.00;;;;;;;0.21;100.00;97995.36;107899;1266;69331;-74
2022/11/26 02:03:12;;;;;;;43.30;29.80;;;;;;;0.21;100.00;98001.36;108067;1263;59769;-74
2022/11/26 02:05:56;;;;;;;41.60;29.90;;;;;;;0.20;100.00;97998.98;108080;1262;59735;-75
2022/11/26 02:08:28;;;;;;;37.60;24.50;;;;;;;0.22;100.00;97996.53;107924;1266;71324;-74
2022/11/26 02:10:58;;;;;;;39.60;26.30;;;;;;;0.24;100.00;97999.59;107763;1265;69149;-75
2022/11/26 02:13:27;;;;;;;35.70;25.20;;;;;;;0.25;100.00;97999.39;107852;1263;68446;-74
2022/11/26 02:15:56;;;;;;;32.50;23.40;;;;;;;0.26;100.00;98002.98;107996;1266;60231;-73
2022/11/26 02:18:33;;;;;;;34.50;24.80;;;;;;;0.26;100.00;98000.23;107992;1262;59725;-73
2022/11/26 02:21:09;;;;;;;32.10;20.90;;;;;;;0.23;99.97;98006.29;107913;1261;71364;-74
2022/11/26 02:23:44;;;;;;;38.40;25.70;;;;;;;0.22;99.68;98007.16;107860;1261;69186;-75
2022/11/26 02:26:32;;;;;;;34.80;24.20;;;;;;;0.21;100.00;98009.41;107977;1266;69219;-74
2022/11/26 02:29:15;;;;;;;32.40;22.20;;;;;;;0.21;100.00;98010.63;107839;1266;59726;-74
2022/11/26 02:31:59;;;;;;;38.70;25.90;;;;;;;0.22;100.00;98011.98;107909;1262;59754;-73
2022/11/26 02:34:38;;;;;;;38.80;24.70;;;;;;;0.22;100.00;98010.59;108003;1266;69923;-73
2022/11/26 02:37:41;;;;;;;35.60;25.10;;;;;;;0.22;100.00;98013.51;107865;1262;70108;-76
2022/11/26 02:40:13;;;;;;;29.00;21.10;;;;;;;0.21;100.00;98010.79;107891;1263;69211;-75
2022/11/26 02:42:44;;;;;;;31.50;22.90;;;;;;;0.21;100.00;98014.06;108032;1265;59788;-75
2022/11/26 02:45:22;;;;;;;34.40;25.50;;;;;;;0.20;100.00;98012.71;108043;1266;59673;-75
2022/11/26 02:47:56;;;;;;;39.90;28.60;;;;;;;0.18;100.00;98010.68;107965;1262;71290;-75
2022/11/26 02:50:40;;;;;;;38.00;26.40;;;;;;;0.16;100.00;98010.21;107966;1266;68428;-74
2022/11/26 02:53:14;;;;;;;44.40;31.90;;;;;;;0.14;100.00;98014.02;107801;1266;68419;-74
2022/11/26 02:55:48;;;;;;;40.10;28.80;;;;;;;0.12;100.00;98016.30;107852;1266;59674;-74
2022/11/26 02:58:19;;;;;;;35.20;27.10;;;;;;;0.11;100.00;98017.36;108016;1261;59619;-75
2022/11/26 03:00:49;;;;;;;37.50;26.60;;;;;;;0.12;100.00;98020.61;107967;1266;71225;-75
2022/11/26 03:03:36;;;;;;;37.60;27.40;;;;;;;0.12;100.00;98019.73;108103;1263;69162;-74
2022/11/26 03:06:10;;;;;;;30.50;24.10;;;;;;;0.13;100.00;98020.92;108921;1266;68402;-75
2022/11/26 03:08:39;;;;;;;38.60;26.90;;;;;;;0.12;100.00;98022.65;107822;1266;59683;-74
2022/11/26 03:11:09;;;;;;;42.20;29.50;;;;;;;0.11;100.00;98024.40;108002;1266;59710;-75
2022/11/26 03:13:38;;;;;;;40.30;30.40;;;;;;;0.09;100.00;98027.87;107977;1263;71283;-74
2022/11/26 03:16:07;;;;;;;39.50;27.50;;;;;;;0.07;100.00;98031.15;107963;1266;68409;-74
2022/11/26 03:18:37;;;;;;;38.40;27.10;;;;;;;0.02;100.00;98026.13;107930;1266;69560;-74
2022/11/26 03:21:08;;;;;;;34.80;24.40;;;;;;;-0.04;100.00;98025.73;107958;1266;59769;-74
2022/11/26 03:23:37;;;;;;;34.90;24.50;;;;;;;-0.08;100.00;98027.86;107869;1266;59760;-74
2022/11/26 03:26:06;;;;;;;33.80;24.90;;;;;;;-0.12;100.00;98026.06;107995;1266;70374;-75
2022/11/26 03:28:36;;;;;;;31.70;21.30;;;;;;;-0.17;100.00;98025.98;107823;1262;69114;-74
2022/11/26 03:31:08;;;;;;;36.00;25.50;;;;;;;-0.21;99.98;98033.80;107674;1266;68723;-74
2022/11/26 03:33:37;;;;;;;34.10;23.30;;;;;;;-0.27;99.72;98032.54;107857;1257;59724;-75
2022/11/26 03:36:07;;;;;;;38.80;26.40;;;;;;;-0.32;99.53;98030.92;107797;1261;59648;-73
2022/11/26 03:38:37;;;;;;;33.10;22.60;;;;;;;-0.38;99.88;98031.72;107987;1263;70954;-74
2022/11/26 03:41:06;;;;;;;40.60;28.10;;;;;;;-0.43;99.99;98027.89;107809;1261;68313;-74
2022/11/26 03:43:36;;;;;;;42.50;27.40;;;;;;;-0.48;100.00;98031.58;107832;1261;68562;-75
2022/11/26 03:46:06;;;;;;;41.30;25.40;;;;;;;-0.55;100.00;98034.42;107852;1266;59742;-75
2022/11/26 03:48:35;;;;;;;39.90;26.90;;;;;;;-0.61;100.00;98033.52;107824;1266;59724;-74
2022/11/26 03:51:04;;;;;;;44.60;30.70;;;;;;;-0.69;100.00;98033.14;107899;1262;70524;-74
2022/11/26 03:53:33;;;;;;;43.80;28.40;;;;;;;-0.77;100.00;98038.42;107965;1266;69185;-74
2022/11/26 03:56:02;;;;;;;37.80;26.30;;;;;;;-0.86;100.00;98044.73;107834;1262;69215;-75
2022/11/26 03:58:31;;;;;;;37.10;23.20;;;;;;;-0.95;100.00;98045.08;107773;1266;59685;-73
2022/11/26 04:01:10;;;;;;;30.90;21.30;;;;;;;-1.04;100.00;98049.82;107729;1262;59729;-75
2022/11/26 04:03:40;;;;;;;31.40;22.20;;;;;;;-1.12;100.00;98055.09;107823;1266;71402;-75
2022/11/26 04:06:10;;;;;;;30.90;20.70;;;;;;;-1.18;100.00;98051.44;107830;1262;69173;-74
2022/11/26 04:08:40;;;;;;;;;;;;;;;-1.26;100.00;98053.09;108085;1266;68565;-74
2022/11/26 04:11:09;;;;;;;29.30;18.60;;;;;;;-1.34;100.00;98048.58;108993;1266;60122;-75
2022/11/26 04:13:39;;;;;;;29.40;19.10;;;;;;;-1.39;100.00;98049.36;107901;1263;59752;-75
2022/11/26 04:16:09;;;;;;;25.80;17.50;;;;;;;-1.44;100.00;98050.80;107970;1266;71453;-74
2022/11/26 04:18:38;;;;;;;23.70;15.60;;;;;;;-1.49;100.00;98063.37;108008;1266;68076;-73
2022/11/26 04:21:09;;;;;;;23.10;14.90;;;;;;;-1.54;100.00;98067.89;107885;1264;69728;-73
2022/11/26 04:23:39;;;;;;;21.80;13.50;;;;;;;-1.60;100.00;98072.05;107807;1266;59686;-73
2022/11/26 04:26:09;;;;;;;36.60;19.30;;;;;;;-1.65;100.00;98071.77;107842;1266;59680;-73
2022/11/26 04:28:39;;;;;;;26.40;15.70;;;;;;;-1.69;100.00;98077.82;107677;1266;70674;-73
2022/11/26 04:31:12;;;;;;;27.50;17.00;;;;;;;-1.75;100.00;98080.80;107851;1266;68515;-73
2022/11/26 04:33:41;;;;;;;;;;;;;;;-1.79;100.00;98083.94;108070;1266;69140;-73
2022/11/26 04:36:12;;;;;;;35.40;19.20;;;;;;;-1.82;100.00;98086.18;107714;1266;59681;-73
2022/11/26 04:38:42;;;;;;;34.50;18.60;;;;;;;-1.83;100.00;98090.64;107791;1262;59683;-73
2022/11/26 04:41:12;;;;;;;27.30;17.80;;;;;;;-1.81;100.00;98097.63;107820;1263;71267;-73
2022/11/26 04:43:41;;;;;;;32.40;19.10;;;;;;;-1.81;100.00;98097.79;107821;1262;69775;-75
2022/11/26 04:46:10;;;;;;;25.60;15.90;;;;;;;-1.80;100.00;98099.48;108008;1263;69213;-75
2022/11/26 04:48:39;;;;;;;25.50;16.50;;;;;;;-1.78;100.00;98100.16;107821;1266;59809;-75
2022/11/26 04:51:09;;;;;;;30.50;20.40;;;;;;;-1.74;100.00;98104.70;108147;1266;60115;-75
2022/11/26 04:53:38;;;;;;;31.10;20.20;;;;;;;-1.67;100.00;98105.81;107791;1266;71722;-75
2022/11/26 04:56:07;;;;;;;38.50;23.70;;;;;;;-1.60;100.00;98104.54;108038;1263;68251;-74
2022/11/26 04:58:36;;;;;;;43.40;30.20;;;;;;;-1.52;100.00;98110.23;107963;1266;69300;-75
2022/11/26 05:01:05;;;;;;;52.20;31.80;;;;;;;-1.46;100.00;98107.75;107917;1266;59704;-75
2022/11/26 05:03:35;;;;;;;48.00;27.50;;;;;;;-1.38;100.00;98110.21;107958;1266;59695;-74
2022/11/26 05:06:05;;;;;;;45.00;29.20;;;;;;;-1.34;100.00;98110.84;107754;1258;71287;-75
2022/11/26 05:08:35;;;;;;;50.40;29.90;;;;;;;-1.29;100.00;98111.63;108031;1266;68258;-75
2022/11/26 05:11:04;;;;;;;64.80;38.70;;;;;;;-1.24;100.00;98113.77;107923;1266;69130;-72
2022/11/26 05:13:33;;;;;;;45.20;32.70;;;;;;;-1.19;100.00;98114.73;107919;1262;59754;-74
2022/11/26 05:16:03;;;;;;;36.50;23.60;;;;;;;-1.16;100.00;98118.27;107731;1266;59758;-74
2022/11/26 05:18:32;;;;;;;47.70;29.20;;;;;;;-1.12;100.00;98121.29;108805;1265;71974;-74
2022/11/26 05:21:03;;;;;;;42.60;27.90;;;;;;;-1.10;100.00;98122.13;108435;1266;69298;-73
2022/11/26 05:23:32;;;;;;;32.70;19.60;;;;;;;-1.08;100.00;98126.36;107646;1261;68825;-74
2022/11/26 05:26:01;;;;;;;41.80;27.20;;;;;;;-1.05;100.00;98125.48;108052;1266;59681;-74
2022/11/26 05:28:30;;;;;;;44.20;26.60;;;;;;;-1.02;100.00;98125.41;107963;1266;59651;-74
2022/11/26 05:31:00;;;;;;;39.60;26.40;;;;;;;-0.98;100.00;98122.80;107959;1266;70697;-74
2022/11/26 05:33:30;;;;;;;48.00;31.70;;;;;;;-0.94;100.00;98128.21;108091;1266;69262;-74
2022/11/26 05:35:59;;;;;;;50.00;32.20;;;;;;;-0.90;100.00;98128.15;107682;1265;68293;-74
2022/11/26 05:38:28;;;;;;;43.40;28.80;;;;;;;-0.88;100.00;98132.91;107911;1262;59720;-74
2022/11/26 05:40:57;;;;;;;41.30;27.00;;;;;;;-0.86;100.00;98132.70;107880;1266;59670;-74
2022/11/26 05:43:26;;;;;;;46.10;26.70;;;;;;;-0.82;100.00;98134.19;108043;1266;70602;-74
2022/11/26 05:45:55;;;;;;;48.90;30.40;;;;;;;-0.80;100.00;98132.43;107825;1266;68459;-75
2022/11/26 05:48:25;;;;;;;42.20;26.50;;;;;;;-0.78;100.00;98133.78;107841;1265;69127;-75
2022/11/26 05:51:01;;;;;;;46.60;28.50;;;;;;;-0.78;100.00;98130.70;107905;1266;59789;-75
2022/11/26 05:53:30;;;;;;;39.90;25.60;;;;;;;-0.78;100.00;98134.30;108008;1263;59759;-75
2022/11/26 05:55:59;;;;;;;37.20;24.10;;;;;;;-0.77;100.00;98138.73;107857;1263;71374;-74
2022/11/26 05:58:28;;;;;;;43.50;26.00;;;;;;;-0.74;100.00;98142.60;107928;1262;68266;-75
2022/11/26 06:00:57;;;;;;;35.80;24.90;;;;;;;-0.72;100.00;98142.41;107930;1266;69933;-74
2022/11/26 06:03:26;;;;;;;43.60;27.50;;;;;;;-0.69;100.00;98141.84;107803;1262;59717;-75
2022/11/26 06:05:56;;;;;;;38.60;23.90;;;;;;;-0.64;100.00;98148.27;107699;1262;59690;-74
2022/11/26 06:08:25;;;;;;;32.30;20.90;;;;;;;-0.60;100.00;98156.26;107974;1266;69691;-75
2022/11/26 06:10:54;;;;;;;32.20;20.20;;;;;;;-0.57;100.00;98157.56;108019;1266;68632;-74
2022/11/26 06:13:22;;;;;;;32.40;20.40;;;;;;;-0.53;100.00;98160.08;107948;1261;67325;-74
2022/11/26 06:15:52;;;;;;;35.90;22.50;;;;;;;-0.49;100.00;98159.67;107898;1266;59751;-74
2022/11/26 06:18:20;;;;;;;32.30;22.30;;;;;;;-0.45;100.00;98158.41;107772;1266;59697;-74
2022/11/26 06:20:49;;;;;;;38.50;23.60;;;;;;;-0.41;100.00;98159.71;107819;1261;70449;-74
2022/11/26 06:23:17;;;;;;;32.60;21.10;;;;;;;-0.37;100.00;98160.66;107806;1268;68645;-75
2022/11/26 06:25:47;;;;;;;37.80;26.50;;;;;;;-0.33;100.00;98161.27;107747;1265;68313;-75
2022/11/26 06:28:15;;;;;;;37.60;24.50;;;;;;;-0.31;100.00;98164.50;109479;1262;58067;-73
2022/11/26 06:30:45;;;;;;;37.80;24.90;;;;;;;-0.28;100.00;98162.23;108116;1266;60039;-75
2022/11/26 06:33:14;;;;;;;29.80;20.80;;;;;;;-0.23;100.00;98165.73;107893;1266;71428;-75
2022/11/26 06:35:43;;;;;;;31.30;21.20;;;;;;;-0.18;100.00;98165.13;107893;1266;69199;-74
2022/11/26 06:38:12;;;;;;;41.30;27.30;;;;;;;-0.14;100.00;98165.74;107654;1264;67528;-74
2022/11/26 06:40:40;;;;;;;39.60;26.00;;;;;;;-0.10;100.00;98168.92;108076;1261;59754;-74
2022/11/26 06:43:09;;;;;;;30.40;21.70;;;;;;;-0.02;100.00;98174.27;107908;1266;59686;-75
2022/11/26 06:45:39;;;;;;;32.00;22.30;;;;;;;0.06;100.00;98177.38;107889;1262;71732;-74
2022/11/26 06:48:07;;;;;;;37.90;24.90;;;;;;;0.14;100.00;98180.84;107819;1266;69685;-74
2022/11/26 06:50:36;;;;;;;35.90;24.00;;;;;;;0.16;100.00;98187.13;107634;1266;69889;-74
2022/11/26 06:53:05;;;;;;;36.50;23.20;;;;;;;0.20;100.00;98192.02;107709;1263;59696;-74
2022/11/26 06:55:34;;;;;;;36.10;25.10;;;;;;;0.27;100.00;98193.62;107813;1261;59724;-74
2022/11/26 06:58:02;;;;;;;37.80;25.20;;;;;;;0.33;100.00;98189.73;107940;1266;71384;-76
2022/11/26 07:00:31;;;;;;;35.00;23.90;;;;;;;0.40;100.00;98196.95;107999;1266;69803;-77
2022/11/26 07:02:59;;;;;;;35.30;25.90;;;;;;;0.50;100.00;98201.39;107907;1266;69948;-74
2022/11/26 07:05:28;;;;;;;33.90;25.70;;;;;;;0.59;100.00;98202.23;107782;1258;59800;-76
2022/11/26 07:07:57;;;;;;;33.10;24.10;;;;;;;0.69;100.00;98207.34;107950;1265;59887;-75
2022/11/26 07:10:27;;;;;;;44.00;31.70;;;;;;;0.79;100.00;98210.73;107985;1266;71338;-75
2022/11/26 07:12:57;;;;;;;41.50;29.70;;;;;;;0.87;100.00;98215.05;108016;1266;69638;-75
2022/11/26 07:15:26;;;;;;;43.20;30.10;;;;;;;0.94;100.00;98215.91;107888;1266;68283;-74
2022/11/26 07:17:55;;;;;;;41.80;28.50;;;;;;;1.04;100.00;98216.22;107816;1266;59721;-75
2022/11/26 07:20:24;;;;;;;56.90;38.00;;;;;;;1.12;100.00;98219.64;107874;1262;59700;-76
2022/11/26 07:22:53;;;;;;;37.20;26.20;;;;;;;1.19;100.00;98223.42;107934;1261;70366;-75
2022/11/26 07:25:22;;;;;;;29.10;21.90;;;;;;;1.27;99.91;98227.71;107952;1265;68209;-75
2022/11/26 07:27:50;;;;;;;38.20;23.30;;;;;;;1.34;99.63;98230.83;107886;1269;69258;-75
2022/11/26 07:30:19;;;;;;;37.80;26.70;;;;;;;1.37;98.91;98229.91;107933;1266;59769;-75
2022/11/26 07:32:48;;;;;;;38.90;26.70;;;;;;;1.40;99.40;98232.74;107883;1266;59724;-75
2022/11/26 07:35:16;;;;;;;40.10;27.50;;;;;;;1.42;99.55;98235.79;109600;1262;70395;-75
2022/11/26 07:37:45;;;;;;;45.80;30.80;;;;;;;1.43;99.60;98238.71;108382;1262;67264;-76
2022/11/26 07:40:14;;;;;;;46.90;30.40;;;;;;;1.44;99.48;98242.45;108015;1266;69128;-76
2022/11/26 07:42:43;;;;;;;42.20;26.70;;;;;;;1.45;99.44;98242.60;108045;1267;59678;-73
2022/11/26 07:45:21;;;;;;;36.90;26.50;;;;;;;1.39;99.33;98248.23;108021;1268;59944;-73
2022/11/26 07:47:50;;;;;;;51.10;30.20;;;;;;;1.40;99.67;98253.02;108082;1265;71205;-73
2022/11/26 07:50:18;;;;;;;111.70;48.20;;;;;;;1.45;99.52;98256.00;107803;1262;69013;-72
2022/11/26 07:52:51;;;;;;;33.50;22.80;;;;;;;1.50;99.32;98256.23;108077;1261;68553;-72
2022/11/26 07:55:19;;;;;;;114.60;53.90;;;;;;;1.49;98.98;98261.55;108038;1266;59724;-74
2022/11/26 07:57:48;;;;;;;75.00;38.00;;;;;;;1.49;98.99;98260.71;107733;1267;59656;-71
2022/11/26 08:00:17;;;;;;;34.10;22.50;;;;;;;1.56;99.19;98262.61;107809;1266;70895;-72
2022/11/26 08:02:46;;;;;;;37.30;25.20;;;;;;;1.60;99.01;98264.75;107713;1266;69292;-72
2022/11/26 08:05:15;;;;;;;34.10;23.30;;;;;;;1.66;99.07;98265.30;107796;1265;69903;-72
2022/11/26 08:07:44;;;;;;;32.90;23.60;;;;;;;1.71;98.79;98269.31;107920;1266;59692;-72
2022/11/26 08:10:14;;;;;;;36.40;24.20;;;;;;;1.76;98.76;98271.95;107704;1266;59737;-73
2022/11/26 08:12:44;;;;;;;31.60;23.80;;;;;;;1.80;98.35;98276.83;107749;1265;71778;-72
2022/11/26 08:15:14;;;;;;;46.40;27.80;;;;;;;1.82;97.97;98276.80;108005;1266;69690;-72
2022/11/26 08:17:42;;;;;;;40.80;27.20;;;;;;;1.82;97.78;98283.30;107778;1266;69209;-73
2022/11/26 08:20:11;;;;;;;39.70;26.00;;;;;;;1.83;97.64;98285.35;107890;1262;59746;-69
2022/11/26 08:22:40;;;;;;;41.70;27.00;;;;;;;1.82;97.41;98290.87;107776;1261;59758;-70
2022/11/26 08:25:09;;;;;;;38.80;25.30;;;;;;;1.80;96.92;98291.09;107375;1266;423562;-70
2022/11/26 08:27:37;;;;;;;40.20;25.40;;;;;;;1.83;96.77;98287.42;107847;1262;68627;-71
2022/11/26 08:30:07;;;;;;;50.80;29.20;;;;;;;1.83;96.48;98288.27;107694;1266;68260;-69
2022/11/26 08:32:36;;;;;;;150.80;64.10;;;;;;;1.82;95.98;98293.80;107692;1266;59777;-69
2022/11/26 08:35:05;;;;;;;75.40;35.00;;;;;;;1.86;95.97;98297.14;107867;1262;59700;-70
2022/11/26 08:37:34;;;;;;;55.20;32.70;;;;;;;1.98;96.91;98298.92;107785;1266;69687;-69
2022/11/26 08:40:04;;;;;;;49.50;29.70;;;;;;;2.04;95.76;98298.95;108203;1261;69075;-70
2022/11/26 08:42:33;;;;;;;37.30;23.10;;;;;;;2.09;94.45;98293.66;108225;1264;68312;-69
2022/11/26 08:45:03;;;;;;;47.90;29.40;;;;;;;2.18;94.71;98299.27;107856;1263;59756;-72
2022/11/26 08:47:31;;;;;;;37.80;25.10;;;;;;;2.22;94.29;98299.71;107750;1266;59697;-70
2022/11/26 08:50:00;;;;;;;34.50;24.10;;;;;;;2.32;94.43;98302.38;107838;1261;71991;-70
2022/11/26 08:52:29;;;;;;;35.00;24.10;;;;;;;2.29;93.72;98302.44;107793;1266;68989;-71
2022/11/26 08:54:57;;;;;;;35.60;22.70;;;;;;;2.30;93.02;98303.13;107830;1266;68374;-70
2022/11/26 08:57:26;;;;;;;32.40;21.90;;;;;;;2.29;91.73;98302.09;107857;1266;59752;-69
2022/11/26 08:59:55;;;;;;;29.70;19.30;;;;;;;2.39;92.53;98307.70;107838;1266;59724;-71
2022/11/26 09:02:24;;;;;;;28.00;19.40;;;;;;;2.42;92.50;98306.58;107747;1267;72030;-69
2022/11/26 09:04:53;;;;;;;35.30;21.40;;;;;;;2.44;91.89;98309.81;107809;1266;69684;-69
2022/11/26 09:07:22;;;;;;;31.60;22.20;;;;;;;2.46;91.65;98310.09;107903;1266;69183;-70
2022/11/26 09:09:51;;;;;;;32.70;20.60;;;;;;;2.42;90.99;98310.36;107864;1266;59763;-69
2022/11/26 09:12:20;;;;;;;27.10;17.10;;;;;;;2.41;91.38;98312.98;107816;1266;59692;-70
2022/11/26 09:14:51;;;;;;;24.90;15.30;;;;;;;2.43;89.89;98316.20;107934;1266;72001;-70
2022/11/26 09:17:20;;;;;;;25.90;17.30;;;;;;;2.37;88.87;98312.73;107752;1266;70071;-69
2022/11/26 09:19:48;;;;;;;24.30;16.20;;;;;;;2.43;89.41;98312.23;107796;1265;69569;-71
2022/11/26 09:22:17;;;;;;;24.00;17.10;;;;;;;2.48;89.83;98312.79;107765;1266;59744;-70
2022/11/26 09:24:46;;;;;;;26.20;16.10;;;;;;;2.45;89.34;98312.87;107877;1266;59738;-70
2022/11/26 09:27:15;;;;;;;25.80;16.00;;;;;;;2.47;89.94;98313.66;107849;1266;70811;-71
2022/11/26 09:29:43;;;;;;;24.80;15.80;;;;;;;2.49;89.75;98310.54;107717;1262;69150;-70
2022/11/26 09:32:12;;;;;;;21.70;14.20;;;;;;;2.49;88.91;98307.60;107795;1266;68301;-70
2022/11/26 09:35:01;;;;;;;25.20;15.80;;;;;;;2.43;87.93;98307.59;107690;1267;59700;-70
2022/11/26 09:37:30;;;;;;;25.10;16.90;;;;;;;2.42;88.04;98304.86;107840;1266;59653;-70
2022/11/26 09:39:59;;;;;;;21.90;14.60;;;;;;;2.42;87.69;98306.75;107825;1266;71373;-70
2022/11/26 09:42:43;;;;;;;20.30;14.70;;;;;;;2.50;87.97;98305.86;107819;1266;68854;-70
2022/11/26 09:45:45;;;;;;;21.90;15.00;;;;;;;2.49;87.66;98308.29;108589;1266;69281;-70
2022/11/26 09:48:20;;;;;;;24.20;16.20;;;;;;;2.57;87.38;98307.39;108051;1268;59730;-72
2022/11/26 09:50:51;;;;;;;23.60;15.40;;;;;;;2.53;87.32;98308.54;107936;1267;59693;-69
2022/11/26 09:53:31;;;;;;;25.20;16.80;;;;;;;2.49;87.23;98307.23;107877;1266;71223;-69
2022/11/26 09:56:00;;;;;;;;;;;;;;;2.52;87.68;98309.77;107808;1266;69032;-69
2022/11/26 09:58:45;;;;;;;23.60;15.30;;;;;;;2.56;88.19;98308.13;107823;1266;69301;-69
2022/11/26 10:01:19;;;;;;;25.90;17.40;;;;;;;2.52;88.32;98310.79;107908;1263;59766;-68
2022/11/26 10:03:49;;;;;;;22.30;15.30;;;;;;;2.61;88.28;98315.92;107893;1267;59693;-69
2022/11/26 10:06:23;;;;;;;28.50;17.60;;;;;;;2.58;87.58;98314.96;107850;1266;70834;-69
2022/11/26 10:09:07;;;;;;;25.50;15.70;;;;;;;2.64;87.81;98315.48;107890;1268;69797;-69
2022/11/26 10:12:06;;;;;;;23.60;15.40;;;;;;;2.68;87.77;98311.92;107935;1266;68504;-69
2022/11/26 10:14:55;;;;;;;24.20;15.70;;;;;;;2.77;87.62;98314.62;107826;1266;59766;-70
2022/11/26 10:17:33;;;;;;;21.60;14.40;;;;;;;2.78;86.92;98312.88;107922;1267;59754;-70
2022/11/26 10:20:23;;;;;;;22.80;14.60;;;;;;;2.88;87.89;98312.41;107750;1266;70554;-70
2022/11/26 10:22:55;;;;;;;;;;;;;;;2.97;86.77;98317.15;107893;1267;69047;-70
2022/11/26 10:25:44;;;;;;;18.30;12.20;;;;;;;3.03;86.80;98319.21;107787;1262;69181;-70
2022/11/26 10:28:20;;;;;;;23.10;14.80;;;;;;;3.13;86.85;98319.98;107852;1266;59814;-68
2022/11/26 10:30:56;;;;;;;24.50;15.50;;;;;;;3.08;85.07;98321.33;107814;1267;59701;-69
2022/11/26 10:33:31;;;;;;;22.20;15.20;;;;;;;2.97;83.98;98320.94;107724;1267;70576;-69
2022/11/26 10:36:01;;;;;;;23.40;15.70;;;;;;;2.85;84.27;98322.48;107707;1266;69825;-69
2022/11/26 10:38:30;;;;;;;24.10;14.60;;;;;;;2.89;84.70;98319.61;107841;1267;69092;-69
2022/11/26 10:40:59;;;;;;;23.40;16.60;;;;;;;2.92;85.22;98321.43;107771;1267;59763;-69
2022/11/26 10:43:31;;;;;;;25.20;16.20;;;;;;;2.90;85.53;98328.21;108061;1271;59659;-68
2022/11/26 10:46:00;;;;;;;19.30;12.80;;;;;;;2.96;85.63;98327.88;107825;1267;71836;-69
2022/11/26 10:48:32;;;;;;;25.10;16.40;;;;;;;2.98;85.27;98330.73;107905;1266;69142;-69
2022/11/26 10:51:05;;;;;;;24.80;14.90;;;;;;;2.91;85.18;98332.99;108165;1266;68331;-69
2022/11/26 10:53:51;;;;;;;21.60;14.80;;;;;;;2.92;85.91;98337.60;107784;1266;59745;-70
2022/11/26 10:56:42;;;;;;;20.30;13.50;;;;;;;3.01;87.04;98339.60;107922;1266;59690;-69
2022/11/26 10:59:28;;;;;;;22.30;14.90;;;;;;;3.05;86.81;98337.09;107932;1266;71173;-69
2022/11/26 11:02:03;;;;;;;26.00;16.40;;;;;;;3.05;85.97;98339.48;107945;1266;69768;-69
2022/11/26 11:04:38;;;;;;;24.60;16.10;;;;;;;3.07;85.67;98341.66;107908;1267;69917;-69
2022/11/26 11:07:28;;;;;;;22.30;15.80;;;;;;;2.94;85.77;98342.55;107718;1268;59853;-69
2022/11/26 11:10:08;;;;;;;20.80;13.60;;;;;;;2.98;86.36;98345.39;107820;1267;59729;-69
2022/11/26 11:12:44;;;;;;;25.20;17.50;;;;;;;3.03;86.61;98345.06;107679;1266;71981;-69
2022/11/26 11:15:29;;;;;;;24.70;16.90;;;;;;;3.00;86.37;98343.05;107882;1266;69660;-69
2022/11/26 11:17:57;;;;;;;24.90;17.20;;;;;;;3.01;86.54;98341.85;107929;1267;69913;-69
2022/11/26 11:20:32;;;;;;;23.70;16.40;;;;;;;2.96;86.74;98343.03;107706;1267;59770;-69
2022/11/26 11:23:17;;;;;;;23.30;14.80;;;;;;;2.90;87.17;98342.66;107761;1267;59768;-68
2022/11/26 11:25:58;;;;;;;26.50;16.80;;;;;;;2.81;87.33;98337.05;107861;1266;71976;-69
2022/11/26 11:28:29;;;;;;;;;;;;;;;2.88;87.69;98336.35;107912;1270;69655;-69
2022/11/26 11:31:14;;;;;;;19.80;14.10;;;;;;;2.88;87.88;98336.70;107765;1267;69271;-69
2022/11/26 11:33:43;;;;;;;20.80;15.10;;;;;;;2.86;87.91;98342.42;107816;1267;59880;-69
2022/11/26 11:36:14;;;;;;;24.50;15.40;;;;;;;2.90;88.28;98340.95;107896;1266;59727;-69